Time;durP1;ratioP1;P1;durP2;ratioP2;P2;SDS_P1;SDS_P2;PMS_P1;PMS_P2;Temp;Humidity;BMP_temperature;BMP_pressure;BME280_temperature;BME280_humidity;BME280_pressure;Samples;Min_cycle;Max_cycle;Signal;HPM_P1;HPM_P2
2023/04/18 00:01:01;;;;;;;1.23;0.70;;;11.00;85.60;;;;;;5037053;28;20032;-72
2023/04/18 00:03:28;;;;;;;2.50;0.95;;;11.10;84.50;;;;;;5034441;28;20040;-72
2023/04/18 00:05:54;;;;;;;2.08;0.85;;;11.00;85.00;;;;;;5037685;28;20033;-72
2023/04/18 00:08:20;;;;;;;2.65;1.00;;;10.80;85.70;;;;;;5033418;28;20518;-71
2023/04/18 00:10:46;;;;;;;1.77;0.98;;;10.90;85.40;;;;;;5029002;28;20041;-72
2023/04/18 00:13:12;;;;;;;3.67;0.95;;;11.00;84.80;;;;;;5034285;28;20020;-71
2023/04/18 00:15:37;;;;;;;2.83;1.05;;;11.00;84.80;;;;;;5038626;28;20040;-72
2023/04/18 00:18:04;;;;;;;1.90;0.85;;;10.80;85.30;;;;;;5039622;28;20025;-72
2023/04/18 00:20:31;;;;;;;1.73;0.73;;;10.60;85.70;;;;;;5034397;28;20040;-72
2023/04/18 00:22:59;;;;;;;3.33;1.00;;;10.50;86.10;;;;;;5039689;28;20385;-71
2023/04/18 00:25:25;;;;;;;2.28;1.00;;;10.60;85.80;;;;;;5037169;28;20025;-72
2023/04/18 00:27:50;;;;;;;3.40;1.00;;;10.60;85.90;;;;;;5036141;28;20036;-72
2023/04/18 00:30:16;;;;;;;4.10;1.00;;;10.60;86.10;;;;;;5038152;28;20041;-72
2023/04/18 00:32:42;;;;;;;3.95;1.17;;;10.60;86.30;;;;;;5037458;28;20383;-71
2023/04/18 00:35:08;;;;;;;2.03;0.82;;;10.30;87.10;;;;;;5037436;28;20031;-71
2023/04/18 00:37:33;;;;;;;3.88;1.35;;;10.40;86.80;;;;;;5038096;28;20033;-71
2023/04/18 00:39:59;;;;;;;3.60;1.13;;;10.40;86.90;;;;;;5037657;28;20449;-71
2023/04/18 00:42:26;;;;;;;2.13;1.05;;;10.60;86.70;;;;;;5033986;28;20029;-72
2023/04/18 00:44:52;;;;;;;2.60;1.05;;;10.40;86.80;;;;;;5030071;28;20037;-71
2023/04/18 00:47:18;;;;;;;2.78;1.38;;;10.40;87.00;;;;;;5033295;28;20041;-72
2023/04/18 00:49:44;;;;;;;3.88;1.10;;;10.40;87.10;;;;;;5038652;28;20306;-71
2023/04/18 00:52:11;;;;;;;1.73;0.95;;;10.80;86.10;;;;;;5036518;28;20550;-72
2023/04/18 00:54:38;;;;;;;2.70;1.20;;;10.60;86.50;;;;;;5039029;28;20070;-72
2023/04/18 00:57:04;;;;;;;3.13;1.30;;;10.50;86.50;;;;;;5037336;28;20029;-71
2023/04/18 00:59:33;;;;;;;2.00;0.95;;;10.60;86.30;;;;;;5032746;28;20030;-72
2023/04/18 01:01:58;;;;;;;3.00;0.77;;;10.70;86.00;;;;;;5039974;28;20030;-72
2023/04/18 01:04:24;;;;;;;3.28;0.93;;;10.60;86.00;;;;;;5044211;28;20135;-71
2023/04/18 01:06:50;;;;;;;1.52;0.90;;;10.60;86.20;;;;;;5036396;28;20510;-72
2023/04/18 01:09:15;;;;;;;2.78;0.90;;;10.50;86.20;;;;;;5033408;28;20052;-72
2023/04/18 01:11:41;;;;;;;1.77;0.77;;;10.60;86.00;;;;;;5039001;28;20127;-71
2023/04/18 01:14:07;;;;;;;0.93;0.70;;;10.40;86.30;;;;;;5032017;28;20430;-72
2023/04/18 01:16:33;;;;;;;2.42;0.70;;;10.40;86.50;;;;;;5039563;28;20483;-72
2023/04/18 01:19:00;;;;;;;2.25;0.85;;;10.20;86.90;;;;;;5031402;28;22693;-72
2023/04/18 01:21:29;;;;;;;2.90;0.98;;;10.20;86.60;;;;;;5034890;28;20032;-71
2023/04/18 01:24:03;;;;;;;3.20;0.77;;;10.30;86.50;;;;;;5039509;28;20486;-72
2023/04/18 01:26:29;;;;;;;1.83;0.80;;;10.40;86.10;;;;;;5052979;28;20044;-71
2023/04/18 01:28:54;;;;;;;1.83;0.80;;;10.40;86.20;;;;;;5031752;28;20026;-71
2023/04/18 01:31:20;;;;;;;1.10;0.60;;;10.40;86.20;;;;;;5043835;28;23277;-72
2023/04/18 01:33:46;;;;;;;1.63;0.70;;;10.30;86.20;;;;;;5041881;28;20510;-71
2023/04/18 01:36:11;;;;;;;2.33;1.30;;;10.40;86.00;;;;;;5037266;28;20029;-72
2023/04/18 01:38:37;;;;;;;1.55;0.80;;;10.40;85.80;;;;;;5037061;28;20034;-71
2023/04/18 01:41:03;;;;;;;3.13;0.90;;;10.60;85.30;;;;;;5034262;28;20035;-72
2023/04/18 01:43:28;;;;;;;1.50;0.70;;;10.40;85.70;;;;;;5039254;28;20034;-72
2023/04/18 01:45:54;;;;;;;2.00;0.60;;;10.60;85.30;;;;;;5038546;28;20088;-71
2023/04/18 01:48:20;;;;;;;1.75;0.70;;;10.50;85.20;;;;;;5044565;28;20028;-72
2023/04/18 01:50:45;;;;;;;2.28;0.75;;;10.30;85.90;;;;;;5042618;28;20439;-71
2023/04/18 01:53:11;;;;;;;1.25;0.55;;;10.10;86.50;;;;;;5046655;28;20490;-71
2023/04/18 01:55:37;;;;;;;3.50;0.98;;;10.30;86.00;;;;;;5040035;28;20061;-71
2023/04/18 01:58:02;;;;;;;3.70;0.90;;;10.30;86.10;;;;;;5040087;28;20036;-72
2023/04/18 02:00:28;;;;;;;2.45;0.73;;;10.10;86.60;;;;;;5043605;28;20083;-71
2023/04/18 02:02:53;;;;;;;1.17;0.40;;;10.30;86.00;;;;;;5036774;28;20175;-71
2023/04/18 02:05:19;;;;;;;2.53;0.70;;;10.30;86.00;;;;;;5040040;28;20522;-71
2023/04/18 02:07:46;;;;;;;1.15;0.60;;;10.10;86.60;;;;;;5041234;28;20098;-71
2023/04/18 02:10:12;;;;;;;1.70;0.68;;;10.20;86.20;;;;;;5036035;28;20128;-71
2023/04/18 02:12:37;;;;;;;1.02;0.55;;;10.10;87.00;;;;;;5048020;28;20119;-71
2023/04/18 02:15:04;;;;;;;1.45;0.60;;;10.20;86.90;;;;;;5037810;28;20036;-72
2023/04/18 02:17:29;;;;;;;1.20;0.70;;;10.20;86.20;;;;;;5043008;28;20060;-72
2023/04/18 02:19:55;;;;;;;1.52;0.77;;;10.30;86.00;;;;;;5040915;28;20502;-71
2023/04/18 02:22:21;;;;;;;1.60;0.80;;;10.40;85.60;;;;;;5034631;28;20502;-71
2023/04/18 02:24:46;;;;;;;3.58;1.00;;;10.20;86.20;;;;;;5031543;28;20082;-72
2023/04/18 02:27:12;;;;;;;1.40;0.65;;;10.20;86.40;;;;;;5045260;28;20037;-71
2023/04/18 02:29:38;;;;;;;1.92;0.90;;;10.00;86.70;;;;;;5039459;28;20032;-71
2023/04/18 02:32:04;;;;;;;0.85;0.50;;;10.20;86.30;;;;;;5037902;28;20036;-71
2023/04/18 02:34:31;;;;;;;0.77;0.50;;;10.00;87.00;;;;;;5039036;28;20021;-71
2023/04/18 02:36:56;;;;;;;0.82;0.60;;;9.90;87.20;;;;;;5037516;28;20033;-72
2023/04/18 02:39:22;;;;;;;1.05;0.45;;;9.60;87.90;;;;;;5036958;28;20037;-72
2023/04/18 02:41:48;;;;;;;3.50;0.55;;;9.60;88.00;;;;;;5039021;28;20029;-72
2023/04/18 02:44:14;;;;;;;2.00;0.57;;;9.70;87.90;;;;;;5036333;28;20060;-72
2023/04/18 02:46:39;;;;;;;1.35;0.75;;;9.50;88.40;;;;;;5038962;28;20064;-71
2023/04/18 02:49:06;;;;;;;1.45;0.82;;;9.50;88.50;;;;;;5035388;28;20396;-71
2023/04/18 02:51:31;;;;;;;0.55;0.35;;;9.60;88.20;;;;;;5039790;28;20068;-72
2023/04/18 02:53:57;;;;;;;1.45;0.73;;;9.50;88.20;;;;;;5037200;28;20064;-72
2023/04/18 02:56:23;;;;;;;1.55;0.70;;;9.70;87.90;;;;;;5034873;28;20037;-71
2023/04/18 02:58:48;;;;;;;1.63;0.85;;;9.60;88.10;;;;;;5037906;28;20028;-72
2023/04/18 03:01:16;;;;;;;0.65;0.50;;;9.40;88.20;;;;;;5043067;28;20390;-71
2023/04/18 03:03:42;;;;;;;1.75;0.60;;;9.20;89.00;;;;;;5038183;28;20518;-71
2023/04/18 03:06:07;;;;;;;1.35;0.70;;;8.80;90.30;;;;;;5036100;28;20104;-70
2023/04/18 03:08:33;;;;;;;2.15;0.95;;;8.80;90.50;;;;;;5037737;28;20047;-71
2023/04/18 03:10:59;;;;;;;1.90;0.80;;;9.10;89.70;;;;;;5034006;28;20483;-71
2023/04/18 03:13:24;;;;;;;1.55;0.70;;;9.40;89.30;;;;;;5034283;28;20041;-71
2023/04/18 03:15:50;;;;;;;2.58;0.68;;;9.50;88.90;;;;;;5041043;28;20028;-71
2023/04/18 03:18:16;;;;;;;0.73;0.50;;;9.80;87.70;;;;;;5032054;28;20025;-71
2023/04/18 03:20:42;;;;;;;1.17;0.57;;;9.80;87.50;;;;;;5029224;28;20041;-71
2023/04/18 03:23:07;;;;;;;0.75;0.30;;;9.90;87.40;;;;;;5028667;28;20029;-71
2023/04/18 03:25:33;;;;;;;4.93;1.50;;;9.80;87.50;;;;;;5035717;28;20086;-71
2023/04/18 03:27:59;;;;;;;0.95;0.60;;;9.80;87.30;;;;;;5031861;28;20028;-72
2023/04/18 03:30:25;;;;;;;1.27;0.65;;;9.90;87.20;;;;;;5034508;28;20088;-72
2023/04/18 03:32:51;;;;;;;1.83;0.40;;;9.90;86.90;;;;;;5036410;28;20029;-71
2023/04/18 03:35:17;;;;;;;0.65;0.40;;;9.80;86.80;;;;;;5034161;28;20037;-72
2023/04/18 03:37:43;;;;;;;2.50;0.82;;;10.00;86.70;;;;;;5030535;28;20035;-71
2023/04/18 03:40:09;;;;;;;0.80;0.40;;;9.90;87.00;;;;;;5030202;28;20112;-71
2023/04/18 03:42:35;;;;;;;1.25;0.52;;;9.80;87.30;;;;;;5029430;28;20083;-71
2023/04/18 03:45:01;;;;;;;1.35;0.63;;;9.70;87.60;;;;;;5036146;28;20037;-71
2023/04/18 03:47:27;;;;;;;1.08;0.43;;;9.40;87.80;;;;;;5037760;28;20116;-72
2023/04/18 03:49:53;;;;;;;0.95;0.52;;;9.50;87.80;;;;;;5026774;28;20487;-71
2023/04/18 03:52:19;;;;;;;0.75;0.35;;;9.30;88.20;;;;;;5040802;28;20038;-71
2023/04/18 03:54:44;;;;;;;1.60;0.57;;;9.50;87.90;;;;;;5031802;28;20064;-71
2023/04/18 03:57:10;;;;;;;0.90;0.50;;;9.40;88.40;;;;;;5037375;28;20040;-71
2023/04/18 03:59:36;;;;;;;1.33;0.47;;;9.20;88.30;;;;;;5032008;28;20087;-71
2023/04/18 04:02:01;;;;;;;1.95;0.43;;;9.50;87.80;;;;;;5033668;28;20024;-72
2023/04/18 04:04:27;;;;;;;0.98;0.47;;;9.40;88.00;;;;;;5033514;28;20029;-71
2023/04/18 04:06:53;;;;;;;1.75;0.63;;;9.40;88.10;;;;;;5031520;28;20037;-72
2023/04/18 04:09:18;;;;;;;2.53;0.47;;;9.40;88.00;;;;;;5029293;28;20065;-72
2023/04/18 04:11:47;;;;;;;1.33;0.63;;;9.50;87.70;;;;;;5038412;28;20037;-72
2023/04/18 04:14:13;;;;;;;1.27;0.77;;;9.80;87.10;;;;;;5028378;28;20056;-71
2023/04/18 04:16:39;;;;;;;0.73;0.52;;;9.50;87.90;;;;;;5027832;28;20479;-71
2023/04/18 04:19:04;;;;;;;1.10;0.50;;;9.40;88.10;;;;;;5033870;28;20101;-71
2023/04/18 04:21:30;;;;;;;1.30;0.63;;;9.40;88.20;;;;;;5033776;28;20510;-71
2023/04/18 04:23:56;;;;;;;1.10;0.55;;;9.30;88.40;;;;;;5030931;28;20455;-72
2023/04/18 04:26:22;;;;;;;1.38;0.50;;;9.00;89.70;;;;;;5027123;28;20037;-71
2023/04/18 04:28:48;;;;;;;1.23;0.75;;;8.90;89.40;;;;;;5024966;28;20410;-71
2023/04/18 04:31:15;;;;;;;2.25;0.50;;;9.10;88.90;;;;;;5029335;28;20142;-71
2023/04/18 04:33:41;;;;;;;1.27;0.60;;;9.00;89.50;;;;;;5030371;28;20029;-71
2023/04/18 04:36:07;;;;;;;0.65;0.30;;;9.20;88.60;;;;;;5030835;28;20501;-71
2023/04/18 04:38:37;;;;;;;0.43;0.25;;;8.90;90.10;;;;;;5028938;28;20037;-72
2023/04/18 04:41:06;;;;;;;0.90;0.50;;;8.80;90.00;;;;;;5026066;28;20029;-72
2023/04/18 04:43:32;;;;;;;0.90;0.50;;;9.10;89.10;;;;;;5027395;28;20040;-72
2023/04/18 04:45:58;;;;;;;1.27;0.60;;;9.20;89.00;;;;;;5043317;28;20036;-71
2023/04/18 04:48:24;;;;;;;2.22;0.77;;;9.30;88.90;;;;;;5031679;28;20029;-72
2023/04/18 04:50:51;;;;;;;3.08;0.77;;;9.40;88.30;;;;;;5031876;28;20048;-71
2023/04/18 04:53:17;;;;;;;0.63;0.30;;;9.30;88.90;;;;;;5026798;28;20033;-71
2023/04/18 04:55:43;;;;;;;0.95;0.50;;;9.20;88.90;;;;;;5028698;28;20044;-71
2023/04/18 04:58:09;;;;;;;1.13;0.50;;;9.10;89.80;;;;;;5029751;28;20094;-71
2023/04/18 05:00:35;;;;;;;1.40;0.50;;;9.00;89.50;;;;;;5029048;28;20037;-71
2023/04/18 05:03:01;;;;;;;1.33;0.50;;;9.20;89.00;;;;;;5033561;28;20033;-71
2023/04/18 05:05:26;;;;;;;1.40;0.70;;;9.10;90.30;;;;;;5032544;28;20037;-71
2023/04/18 05:07:53;;;;;;;0.60;0.45;;;9.00;90.20;;;;;;5030363;28;20543;-72
2023/04/18 05:10:18;;;;;;;1.73;0.57;;;8.90;90.10;;;;;;5031365;28;20045;-71
2023/04/18 05:12:44;;;;;;;1.02;0.50;;;8.90;90.60;;;;;;5029111;28;20033;-71
2023/04/18 05:15:11;;;;;;;1.23;0.57;;;8.80;91.00;;;;;;5033718;28;20044;-71
2023/04/18 05:17:36;;;;;;;1.13;0.60;;;8.70;90.80;;;;;;5028366;28;20651;-71
2023/04/18 05:20:03;;;;;;;0.80;0.43;;;9.10;89.80;;;;;;5035562;28;20117;-71
2023/04/18 05:22:29;;;;;;;0.80;0.43;;;9.30;89.00;;;;;;5030635;28;20468;-72
2023/04/18 05:24:54;;;;;;;1.85;0.60;;;9.40;89.50;;;;;;5035313;28;20042;-71
2023/04/18 05:27:20;;;;;;;1.88;0.95;;;9.10;89.80;;;;;;5027825;28;20116;-71
2023/04/18 05:29:47;;;;;;;1.58;0.60;;;9.00;90.00;;;;;;5031878;28;20088;-71
2023/04/18 05:32:13;;;;;;;1.52;0.68;;;8.90;90.40;;;;;;5034768;28;20025;-70
2023/04/18 05:34:38;;;;;;;1.25;0.50;;;8.90;90.50;;;;;;5027813;28;20032;-72
2023/04/18 05:37:04;;;;;;;1.35;0.65;;;8.90;90.80;;;;;;5036063;28;20120;-70
2023/04/18 05:39:30;;;;;;;1.13;0.50;;;9.10;90.00;;;;;;5029368;28;20029;-70
2023/04/18 05:41:55;;;;;;;1.42;0.63;;;9.10;90.40;;;;;;5034158;28;20032;-70
2023/04/18 05:44:23;;;;;;;0.82;0.38;;;9.00;90.90;;;;;;5032850;28;20041;-71
2023/04/18 05:46:50;;;;;;;1.30;0.63;;;9.10;90.80;;;;;;5034177;28;20037;-71
2023/04/18 05:49:17;;;;;;;0.85;0.47;;;9.20;90.20;;;;;;5032635;28;20037;-70
2023/04/18 05:51:43;;;;;;;1.45;0.75;;;9.20;90.10;;;;;;5033201;28;20037;-72
2023/04/18 05:54:09;;;;;;;2.45;0.52;;;9.20;91.10;;;;;;5027646;28;20506;-72
2023/04/18 05:56:35;;;;;;;0.80;0.50;;;9.20;90.30;;;;;;5034252;28;20030;-72
2023/04/18 05:59:01;;;;;;;1.05;0.43;;;9.40;89.70;;;;;;5035147;28;20028;-72
2023/04/18 06:01:27;;;;;;;1.38;0.60;;;9.80;87.90;;;;;;5035411;28;20406;-73
2023/04/18 06:03:53;;;;;;;0.60;0.40;;;10.00;87.30;;;;;;5025595;28;20043;-72
2023/04/18 06:06:20;;;;;;;0.85;0.47;;;9.90;88.80;;;;;;5026477;28;20025;-73
2023/04/18 06:08:45;;;;;;;1.98;0.90;;;9.70;90.60;;;;;;5024611;28;20065;-72
2023/04/18 06:11:13;;;;;;;2.08;0.90;;;9.70;89.20;;;;;;5027668;28;20033;-72
2023/04/18 06:13:40;;;;;;;2.10;0.70;;;9.80;89.00;;;;;;5031347;28;20090;-72
2023/04/18 06:16:06;;;;;;;0.77;0.40;;;9.80;89.00;;;;;;5035291;28;20124;-73
2023/04/18 06:18:32;;;;;;;1.67;0.70;;;9.90;88.60;;;;;;5034117;28;20076;-72
2023/04/18 06:20:57;;;;;;;0.80;0.50;;;9.90;88.30;;;;;;5028625;28;20064;-72
2023/04/18 06:23:23;;;;;;;3.20;0.70;;;9.90;89.40;;;;;;5033067;28;20046;-72
2023/04/18 06:25:49;;;;;;;1.85;0.70;;;9.90;90.50;;;;;;5033222;28;20037;-72
2023/04/18 06:28:15;;;;;;;1.67;0.80;;;10.00;90.40;;;;;;5030342;28;20029;-73
2023/04/18 06:30:41;;;;;;;2.92;1.10;;;10.20;88.40;;;;;;5032156;28;20486;-72
2023/04/18 06:33:09;;;;;;;13.70;1.25;;;10.50;88.80;;;;;;5035232;28;20029;-73
2023/04/18 06:35:35;;;;;;;4.85;1.00;;;10.80;90.10;;;;;;5027909;28;20025;-72
2023/04/18 06:38:01;;;;;;;2.30;0.82;;;11.00;89.40;;;;;;5031078;28;20037;-73
2023/04/18 06:40:27;;;;;;;2.20;0.75;;;11.10;87.20;;;;;;5027985;28;20029;-73
2023/04/18 06:42:52;;;;;;;1.73;0.77;;;11.50;87.10;;;;;;5036824;28;20028;-73
2023/04/18 06:45:18;;;;;;;1.20;0.77;;;11.80;88.40;;;;;;5031920;28;20032;-71
2023/04/18 06:47:44;;;;;;;2.70;0.70;;;12.30;88.20;;;;;;5030753;28;20029;-71
2023/04/18 06:50:10;;;;;;;2.53;0.60;;;13.00;85.30;;;;;;5032453;28;20048;-71
2023/04/18 06:52:39;;;;;;;1.85;0.73;;;13.80;83.50;;;;;;5035091;28;20029;-72
2023/04/18 06:55:06;;;;;;;1.17;0.45;;;14.90;78.40;;;;;;5025953;28;20400;-72
2023/04/18 06:57:32;;;;;;;1.40;0.47;;;15.90;76.60;;;;;;5028308;28;20029;-71
2023/04/18 06:59:57;;;;;;;1.73;0.70;;;17.70;76.80;;;;;;5028691;28;20132;-70
2023/04/18 07:02:23;;;;;;;3.35;0.70;;;18.90;73.10;;;;;;5028318;28;20033;-70
2023/04/18 07:04:49;;;;;;;1.13;0.60;;;19.90;72.30;;;;;;5030494;28;20164;-70
2023/04/18 07:07:15;;;;;;;2.45;0.68;;;19.30;71.40;;;;;;5027530;28;20414;-69
2023/04/18 07:09:40;;;;;;;2.25;0.77;;;18.30;72.20;;;;;;5029275;28;20040;-69
2023/04/18 07:12:06;;;;;;;2.15;0.80;;;19.60;73.50;;;;;;5032645;28;20040;-71
2023/04/18 07:14:32;;;;;;;0.65;0.60;;;19.60;70.70;;;;;;5030069;28;20026;-71
2023/04/18 07:16:57;;;;;;;1.67;0.93;;;18.70;71.70;;;;;;5030853;28;20061;-73
2023/04/18 07:19:23;;;;;;;2.65;0.63;;;18.70;70.00;;;;;;5038848;28;20061;-73
2023/04/18 07:21:49;;;;;;;1.85;0.60;;;18.10;69.40;;;;;;5045764;28;20023;-72
2023/04/18 07:24:15;;;;;;;3.85;0.80;;;20.00;68.30;;;;;;5044133;28;20029;-72
2023/04/18 07:26:40;;;;;;;1.98;0.80;;;20.60;67.50;;;;;;5044277;28;20516;-71
2023/04/18 07:29:06;;;;;;;2.90;0.70;;;20.40;67.10;;;;;;5045416;28;20413;-72
2023/04/18 07:31:32;;;;;;;2.03;0.77;;;20.20;67.80;;;;;;5046059;28;20115;-72
2023/04/18 07:33:58;;;;;;;1.17;0.70;;;19.40;67.30;;;;;;5044619;28;20025;-73
2023/04/18 07:36:24;;;;;;;2.45;0.90;;;16.40;71.20;;;;;;5046247;28;20047;-70
2023/04/18 07:38:50;;;;;;;1.77;0.65;;;15.10;74.90;;;;;;5045939;28;20052;-72
2023/04/18 07:41:16;;;;;;;2.10;0.70;;;14.30;75.10;;;;;;5045654;28;20051;-70
2023/04/18 07:43:43;;;;;;;1.63;0.60;;;13.80;76.20;;;;;;5045442;28;20615;-71
2023/04/18 07:46:09;;;;;;;5.45;1.65;;;13.80;77.30;;;;;;5042919;28;20442;-73
2023/04/18 07:48:35;;;;;;;7.35;1.30;;;13.70;79.10;;;;;;5045997;28;20033;-71
2023/04/18 07:51:02;;;;;;;1.75;0.77;;;13.50;79.50;;;;;;5045899;28;20548;-72
2023/04/18 07:53:28;;;;;;;2.20;0.60;;;13.40;80.90;;;;;;5045380;28;20021;-71
2023/04/18 07:55:54;;;;;;;1.10;0.60;;;13.30;80.40;;;;;;5045107;28;20166;-71
2023/04/18 07:58:20;;;;;;;1.50;0.60;;;13.40;79.80;;;;;;5045099;28;20033;-70
2023/04/18 08:00:45;;;;;;;4.53;0.80;;;13.40;78.50;;;;;;5045053;28;20127;-71
2023/04/18 08:03:11;;;;;;;3.50;0.63;;;13.60;79.30;;;;;;5045216;28;20029;-71
2023/04/18 08:05:38;;;;;;;1.65;0.65;;;13.60;80.40;;;;;;5043840;28;20025;-71
2023/04/18 08:08:06;;;;;;;2.00;0.70;;;13.70;80.60;;;;;;5045044;28;20109;-71
2023/04/18 08:10:33;;;;;;;1.98;0.90;;;13.70;78.00;;;;;;5044937;28;20083;-71
2023/04/18 08:12:59;;;;;;;1.73;0.73;;;13.70;78.30;;;;;;5042138;28;20037;-72
2023/04/18 08:15:27;;;;;;;1.83;0.80;;;13.90;78.70;;;;;;5033745;28;20373;-72
2023/04/18 08:17:56;;;;;;;4.18;1.73;;;13.70;78.10;;;;;;5044945;28;20066;-72
2023/04/18 08:20:22;;;;;;;0.98;0.47;;;14.10;78.10;;;;;;5034500;28;20337;-72
2023/04/18 08:22:47;;;;;;;2.25;1.15;;;14.10;77.00;;;;;;5024445;28;20029;-72
2023/04/18 08:25:13;;;;;;;1.80;0.70;;;14.20;78.10;;;;;;5035353;28;20115;-70
2023/04/18 08:27:39;;;;;;;1.00;0.57;;;14.30;77.20;;;;;;5032842;28;20028;-69
2023/04/18 08:30:05;;;;;;;1.67;0.70;;;14.40;77.30;;;;;;5029870;28;20131;-70
2023/04/18 08:32:32;;;;;;;3.83;0.77;;;14.50;79.80;;;;;;5025509;28;20033;-69
2023/04/18 08:34:57;;;;;;;1.55;0.52;;;14.50;76.60;;;;;;5030667;28;20111;-71
2023/04/18 08:37:23;;;;;;;1.63;0.77;;;14.40;77.60;;;;;;5029503;28;20107;-71
2023/04/18 08:39:49;;;;;;;2.08;0.60;;;15.70;77.40;;;;;;5027241;28;20368;-70
2023/04/18 08:42:18;;;;;;;1.50;0.70;;;18.00;71.00;;;;;;5032930;28;20033;-69
2023/04/18 08:44:47;;;;;;;1.00;0.52;;;18.90;70.90;;;;;;5035224;28;20039;-68
2023/04/18 08:47:13;;;;;;;1.42;0.60;;;19.70;70.60;;;;;;5031459;28;20029;-69
2023/04/18 08:49:39;;;;;;;6.50;0.85;;;20.20;69.70;;;;;;5027559;28;20649;-70
2023/04/18 08:52:18;;;;;;;1.25;0.60;;;20.20;69.70;;;;;;5026600;28;20033;-72
2023/04/18 08:54:45;;;;;;;2.75;1.00;;;20.80;69.20;;;;;;5027767;28;20021;-69
2023/04/18 08:57:15;;;;;;;1.33;0.60;;;21.60;67.60;;;;;;5031750;28;20033;-70
2023/04/18 08:59:44;;;;;;;1.95;0.73;;;21.00;68.90;;;;;;5032965;28;20378;-70
2023/04/18 09:02:12;;;;;;;1.23;0.68;;;21.40;68.40;;;;;;5033837;28;20025;-71
2023/04/18 09:04:42;;;;;;;1.13;0.60;;;20.10;67.40;;;;;;5031742;28;20079;-71
2023/04/18 09:07:15;;;;;;;1.42;0.57;;;21.00;68.80;;;;;;5037489;28;20037;-70
2023/04/18 09:09:48;;;;;;;2.78;0.63;;;21.10;68.60;;;;;;5031687;28;20099;-69
2023/04/18 09:12:17;;;;;;;0.93;0.55;;;20.40;69.80;;;;;;5034789;28;20064;-69
2023/04/18 09:14:45;;;;;;;0.75;0.35;;;19.70;69.70;;;;;;5029363;28;20029;-68
2023/04/18 09:17:42;;;;;;;10.90;5.65;;;18.70;68.80;;;;;;5039391;28;20022;-69
2023/04/18 09:20:14;;;;;;;5.95;3.10;;;17.80;70.10;;;;;;5036377;28;20116;-69
2023/04/18 09:22:52;;;;;;;1.83;0.73;;;17.90;72.10;;;;;;5028940;28;20434;-69
2023/04/18 09:25:48;;;;;;;2.13;0.60;;;17.30;72.00;;;;;;5031175;28;20083;-69
2023/04/18 09:28:30;;;;;;;1.75;0.70;;;17.10;72.50;;;;;;5039342;28;20033;-69
2023/04/18 09:31:08;;;;;;;2.25;0.60;;;17.10;71.90;;;;;;5032615;28;20040;-69
2023/04/18 09:33:35;;;;;;;3.08;0.70;;;16.60;71.90;;;;;;5032490;28;20025;-69
2023/04/18 09:36:26;;;;;;;1.02;0.50;;;16.60;71.90;;;;;;5029891;28;20029;-69
2023/04/18 09:38:52;;;;;;;2.55;1.08;;;16.70;71.60;;;;;;5037740;28;20018;-69
2023/04/18 09:41:18;;;;;;;1.58;0.90;;;16.90;71.70;;;;;;5035520;28;20036;-69
2023/04/18 09:43:45;;;;;;;1.40;0.65;;;17.00;71.10;;;;;;5039806;28;20025;-69
2023/04/18 09:46:12;;;;;;;2.47;1.00;;;17.00;73.40;;;;;;5031074;28;20059;-69
2023/04/18 09:48:39;;;;;;;2.15;0.98;;;17.20;72.90;;;;;;5037997;28;20125;-69
2023/04/18 09:51:08;;;;;;;1.02;0.60;;;17.20;71.40;;;;;;5034434;28;20040;-69
2023/04/18 09:53:38;;;;;;;2.15;0.77;;;17.30;72.80;;;;;;5042525;28;20033;-69
2023/04/18 09:56:09;;;;;;;1.55;0.80;;;17.70;74.10;;;;;;5038383;28;20036;-69
2023/04/18 09:58:39;;;;;;;2.03;0.85;;;17.20;72.40;;;;;;5038015;28;20159;-70
2023/04/18 10:01:06;;;;;;;1.48;0.77;;;17.50;72.40;;;;;;5035843;28;20033;-69
2023/04/18 10:03:37;;;;;;;3.47;0.80;;;17.60;72.70;;;;;;5032690;28;20072;-69
2023/04/18 10:06:04;;;;;;;1.42;0.95;;;17.60;72.50;;;;;;5037583;28;20483;-69
2023/04/18 10:08:31;;;;;;;3.78;1.00;;;17.70;72.90;;;;;;5038362;28;20045;-70
2023/04/18 10:10:57;;;;;;;1.80;0.75;;;17.60;72.30;;;;;;5040182;28;20034;-69
2023/04/18 10:13:25;;;;;;;1.90;1.02;;;17.80;73.30;;;;;;5038768;28;20029;-69
2023/04/18 10:15:51;;;;;;;4.65;1.38;;;17.90;72.20;;;;;;5038636;28;20110;-70
2023/04/18 10:18:22;;;;;;;1.98;0.98;;;18.00;71.30;;;;;;5038837;28;20134;-70
2023/04/18 10:20:48;;;;;;;2.28;1.05;;;18.10;72.10;;;;;;5038806;28;20460;-69
2023/04/18 10:23:47;;;;;;;3.15;0.70;;;18.20;71.90;;;;;;5033627;28;20114;-70
2023/04/18 10:26:14;;;;;;;1.65;0.80;;;18.20;70.60;;;;;;5021446;28;20042;-70
2023/04/18 10:28:56;;;;;;;3.15;0.93;;;18.40;71.10;;;;;;5038268;28;20490;-69
2023/04/18 10:31:26;;;;;;;2.50;0.98;;;18.70;72.10;;;;;;5033629;28;20034;-69
2023/04/18 10:33:54;;;;;;;2.47;0.90;;;18.50;71.50;;;;;;5037943;28;20025;-70
2023/04/18 10:36:20;;;;;;;1.85;0.85;;;18.70;70.80;;;;;;5030886;28;20455;-69
2023/04/18 10:38:53;;;;;;;1.55;0.70;;;18.90;71.30;;;;;;5030110;28;20680;-69
2023/04/18 10:41:22;;;;;;;1.95;0.80;;;19.10;71.30;;;;;;5030339;28;20525;-70
2023/04/18 10:46:32;;;;;;;2.28;0.50;;;18.90;70.30;;;;;;5029355;28;20039;-70
2023/04/18 10:49:26;;;;;;;1.40;0.80;;;19.10;71.30;;;;;;5032940;28;20025;-69
2023/04/18 10:51:57;;;;;;;0.98;0.57;;;19.30;70.30;;;;;;5032768;28;20731;-70
2023/04/18 10:54:47;;;;;;;1.95;0.80;;;19.10;68.20;;;;;;5032983;28;20160;-70
2023/04/18 10:57:14;;;;;;;2.47;0.60;;;19.10;68.10;;;;;;5027404;28;20542;-70
2023/04/18 10:59:48;;;;;;;1.83;0.75;;;19.50;68.30;;;;;;5026097;28;20125;-70
2023/04/18 11:02:23;;;;;;;1.55;0.70;;;19.80;68.50;;;;;;5028373;28;20044;-69
2023/04/18 11:04:50;;;;;;;3.25;1.00;;;20.10;68.30;;;;;;5035246;28;20083;-70
2023/04/18 11:07:16;;;;;;;1.67;0.77;;;20.30;68.80;;;;;;5030599;28;20094;-70
2023/04/18 11:09:53;;;;;;;2.58;0.70;;;20.30;68.60;;;;;;5029076;28;20037;-70
2023/04/18 11:12:19;;;;;;;2.80;0.77;;;20.30;68.70;;;;;;5038241;28;20025;-69
2023/04/18 11:14:48;;;;;;;1.45;0.68;;;20.50;68.60;;;;;;5036124;28;20044;-70
2023/04/18 11:17:24;;;;;;;1.75;0.65;;;20.30;67.00;;;;;;5028104;28;20033;-70
2023/04/18 11:19:58;;;;;;;0.65;0.40;;;20.60;64.30;;;;;;5030845;28;20402;-69
2023/04/18 11:22:23;;;;;;;0.80;0.38;;;20.30;62.20;;;;;;5029665;28;20604;-70
2023/04/18 11:24:49;;;;;;;1.33;0.60;;;20.60;65.30;;;;;;5026020;28;20028;-69
2023/04/18 11:27:15;;;;;;;1.15;0.60;;;20.30;65.30;;;;;;5026119;28;20075;-70
2023/04/18 11:29:40;;;;;;;0.90;0.52;;;20.70;66.70;;;;;;5030548;28;20065;-70
2023/04/18 11:32:07;;;;;;;1.80;0.40;;;21.00;66.40;;;;;;5030368;28;20452;-70
2023/04/18 11:34:34;;;;;;;1.90;0.75;;;21.10;66.70;;;;;;5028741;28;20418;-70
2023/04/18 11:37:00;;;;;;;0.63;0.50;;;20.90;63.10;;;;;;5025280;28;20120;-70
2023/04/18 11:39:26;;;;;;;1.65;0.75;;;20.90;65.30;;;;;;5031582;28;20029;-70
2023/04/18 11:41:54;;;;;;;1.42;0.55;;;20.80;65.30;;;;;;5032535;28;20041;-70
2023/04/18 11:44:24;;;;;;;1.35;0.70;;;21.10;64.80;;;;;;5033009;28;20103;-70
2023/04/18 11:46:50;;;;;;;1.88;0.60;;;21.10;63.90;;;;;;5022996;28;20029;-70
2023/04/18 11:49:31;;;;;;;2.35;0.65;;;21.20;65.80;;;;;;5024875;28;20568;-69
2023/04/18 11:52:00;;;;;;;1.40;0.68;;;21.40;65.70;;;;;;5027490;28;20588;-69
2023/04/18 11:54:38;;;;;;;1.48;0.63;;;21.50;64.20;;;;;;5029328;28;20029;-70
2023/04/18 11:57:05;;;;;;;0.85;0.60;;;21.50;65.60;;;;;;5033625;28;20028;-70
2023/04/18 11:59:31;;;;;;;1.92;0.68;;;21.30;65.70;;;;;;5021117;28;20072;-70
2023/04/18 12:02:03;;;;;;;1.77;0.70;;;21.60;64.50;;;;;;5020705;28;20033;-70
2023/04/18 12:04:29;;;;;;;1.48;0.70;;;21.60;64.80;;;;;;5028886;28;20036;-70
2023/04/18 12:06:55;;;;;;;5.28;0.80;;;22.00;65.70;;;;;;5020344;28;20127;-69
2023/04/18 12:09:23;;;;;;;1.05;0.60;;;21.90;64.20;;;;;;5031477;28;20118;-70
2023/04/18 12:12:03;;;;;;;1.15;0.50;;;21.80;64.20;;;;;;5019270;28;20120;-69
2023/04/18 12:14:29;;;;;;;1.45;0.70;;;21.80;64.50;;;;;;5030643;28;20518;-70
2023/04/18 12:16:55;;;;;;;2.05;0.50;;;22.10;66.20;;;;;;5018220;28;20060;-70
2023/04/18 12:19:29;;;;;;;1.63;0.63;;;22.40;65.40;;;;;;5032245;28;20609;-69
2023/04/18 12:21:55;;;;;;;27.50;1.85;;;22.30;63.20;;;;;;5034245;28;20029;-69
2023/04/18 12:24:23;;;;;;;1.42;0.52;;;22.10;66.10;;;;;;5023996;28;20084;-69
2023/04/18 12:26:49;;;;;;;1.77;0.80;;;22.10;62.80;;;;;;5026326;28;20021;-69
2023/04/18 12:29:16;;;;;;;1.25;0.70;;;21.90;65.00;;;;;;5017903;28;20144;-69
2023/04/18 12:31:41;;;;;;;2.55;0.50;;;22.10;65.10;;;;;;5025403;28;20140;-69
2023/04/18 12:34:07;;;;;;;1.83;0.57;;;22.10;62.80;;;;;;5032636;28;20673;-69
2023/04/18 12:36:33;;;;;;;1.60;0.68;;;22.40;64.50;;;;;;5033559;28;20405;-70
2023/04/18 12:38:59;;;;;;;1.33;0.63;;;22.20;62.40;;;;;;5029568;28;20132;-70
2023/04/18 12:41:24;;;;;;;1.08;0.70;;;22.70;65.70;;;;;;5024153;28;20037;-70
2023/04/18 12:43:50;;;;;;;11.02;1.50;;;22.80;62.30;;;;;;5027957;28;21036;-69
2023/04/18 12:46:16;;;;;;;1.77;0.60;;;22.60;61.60;;;;;;5028050;28;20091;-70
2023/04/18 12:48:41;;;;;;;1.15;0.50;;;22.50;62.10;;;;;;5025133;28;20036;-69
2023/04/18 12:51:07;;;;;;;0.50;0.40;;;22.20;63.90;;;;;;5019004;28;20522;-70
2023/04/18 12:53:33;;;;;;;1.33;0.40;;;21.80;63.90;;;;;;5024264;28;20108;-69